Airport METAR Information

LTBA 290050Z 22008KT CAVOK 12/06 Q1019 NOSIG RMK RWY23 21003KT 170V230

VATSIM Livefeed

Card image cap

ATC Bookings

No position booked

Card image cap

Active ATC

No controllers online

Blog

Read our latest news and get to know us better.